AIC251 VABB-VOBL
Flight info
| Callsign | AIC251 |
|---|---|
| Flight time | N/A |
| Altitude | 37000 |
| Route | VEVAK2AXEPKOS/27 EPKOS Q9 RIKBU RIKBU7E |
| Aircraft | B77W/H-SDE1E2E3FGHIJ2J3J4J5M1RWXY/LB1D1 |
Departure
| Time | N/A |
|---|---|
| Airport | Chhatrapati Shivaji Maharaj International Airport (VABB) |
Arrival
| Time | 2026-04-28 15:19 |
|---|---|
| Airport | Kempegowda International Airport Bengaluru (VOBL) |
| Time | Latitude | Longitude | Altitude | Speed | Heading |
|---|---|---|---|---|---|
| 2026-04-28 14:52 | 15.25058 | 76.25037 | 36795 ft | 537 kts | 131° |
| 2026-04-28 14:52 | 15.20357 | 76.31076 | 36801 ft | 537 kts | 131° |
| 2026-04-28 14:53 | 15.15482 | 76.36842 | 36777 ft | 516 kts | 145° |
| 2026-04-28 14:53 | 15.12589 | 76.38863 | 36819 ft | 500 kts | 152° |
| 2026-04-28 14:53 | 15.09656 | 76.40712 | 36703 ft | 490 kts | 153° |
| 2026-04-28 14:53 | 15.06745 | 76.42522 | 36400 ft | 483 kts | 153° |
| 2026-04-28 14:54 | 15.03882 | 76.44318 | 36164 ft | 478 kts | 152° |
| 2026-04-28 14:54 | 15.01010 | 76.46145 | 36001 ft | 489 kts | 152° |
| 2026-04-28 14:54 | 14.98128 | 76.47998 | 35542 ft | 498 kts | 152° |
| 2026-04-28 14:54 | 14.95186 | 76.49913 | 35100 ft | 495 kts | 151° |
| 2026-04-28 14:55 | 14.92278 | 76.51819 | 34643 ft | 500 kts | 151° |
| 2026-04-28 14:55 | 14.89279 | 76.53783 | 34164 ft | 521 kts | 151° |
| 2026-04-28 14:55 | 14.86168 | 76.55818 | 33681 ft | 532 kts | 151° |
| 2026-04-28 14:55 | 14.83065 | 76.57855 | 33107 ft | 524 kts | 150° |
| 2026-04-28 14:56 | 14.80029 | 76.59849 | 32576 ft | 519 kts | 150° |
| 2026-04-28 14:56 | 14.76992 | 76.61840 | 32069 ft | 514 kts | 150° |
| 2026-04-28 14:56 | 14.73972 | 76.63817 | 31574 ft | 510 kts | 150° |
| 2026-04-28 14:56 | 14.70969 | 76.65779 | 31088 ft | 507 kts | 150° |
| 2026-04-28 14:57 | 14.68047 | 76.67688 | 30754 ft | 495 kts | 150° |
| 2026-04-28 14:57 | 14.66125 | 76.68945 | 30326 ft | 482 kts | 150° |
| 2026-04-28 14:57 | 14.62477 | 76.71332 | 29610 ft | 450 kts | 150° |
| 2026-04-28 14:57 | 14.59827 | 76.73061 | 29149 ft | 453 kts | 151° |
| 2026-04-28 14:58 | 14.57120 | 76.74819 | 28707 ft | 468 kts | 150° |
| 2026-04-28 14:58 | 14.54341 | 76.76622 | 28512 ft | 477 kts | 150° |
| 2026-04-28 14:58 | 14.51511 | 76.78463 | 27821 ft | 480 kts | 150° |
| 2026-04-28 14:58 | 14.48688 | 76.80304 | 27306 ft | 476 kts | 150° |
| 2026-04-28 14:59 | 14.45841 | 76.82159 | 27280 ft | 493 kts | 150° |
| 2026-04-28 14:59 | 14.42926 | 76.84059 | 26993 ft | 481 kts | 150° |
| 2026-04-28 14:59 | 14.40222 | 76.85827 | 26409 ft | 455 kts | 150° |
| 2026-04-28 14:59 | 14.37615 | 76.87529 | 25800 ft | 430 kts | 149° |
| 2026-04-28 15:00 | 14.35153 | 76.89132 | 25258 ft | 407 kts | 149° |
| 2026-04-28 15:00 | 14.32830 | 76.90643 | 24742 ft | 390 kts | 149° |
| 2026-04-28 15:00 | 14.30553 | 76.92122 | 24269 ft | 388 kts | 149° |
| 2026-04-28 15:00 | 14.28269 | 76.93603 | 23827 ft | 394 kts | 149° |
| 2026-04-28 15:01 | 14.25941 | 76.95115 | 23360 ft | 395 kts | 149° |
| 2026-04-28 15:01 | 14.23606 | 76.96633 | 22801 ft | 397 kts | 149° |
| 2026-04-28 15:01 | 14.21263 | 76.98155 | 22247 ft | 397 kts | 148° |
| 2026-04-28 15:01 | 14.18924 | 76.99678 | 21712 ft | 396 kts | 148° |
| 2026-04-28 15:02 | 14.16684 | 77.01138 | 21188 ft | 395 kts | 148° |
| 2026-04-28 15:02 | 14.14360 | 77.02652 | 20678 ft | 394 kts | 148° |
| 2026-04-28 15:02 | 14.12042 | 77.04162 | 20162 ft | 393 kts | 148° |
| 2026-04-28 15:02 | 14.09743 | 77.05660 | 19672 ft | 392 kts | 148° |
| 2026-04-28 15:03 | 14.07428 | 77.07168 | 19167 ft | 391 kts | 148° |
| 2026-04-28 15:03 | 14.05123 | 77.08668 | 18686 ft | 390 kts | 147° |
| 2026-04-28 15:03 | 14.02855 | 77.10143 | 18186 ft | 389 kts | 147° |
| 2026-04-28 15:03 | 14.00558 | 77.11637 | 17648 ft | 388 kts | 147° |
| 2026-04-28 15:04 | 13.98269 | 77.13125 | 17102 ft | 387 kts | 147° |
| 2026-04-28 15:04 | 13.96017 | 77.14589 | 16564 ft | 385 kts | 147° |
| 2026-04-28 15:04 | 13.93754 | 77.16059 | 16032 ft | 384 kts | 147° |
| 2026-04-28 15:04 | 13.91497 | 77.17525 | 15504 ft | 382 kts | 147° |
| 2026-04-28 15:05 | 13.89248 | 77.18986 | 15004 ft | 380 kts | 147° |
| 2026-04-28 15:05 | 13.87013 | 77.20439 | 14503 ft | 378 kts | 147° |
| 2026-04-28 15:05 | 13.84828 | 77.21859 | 14028 ft | 376 kts | 147° |
| 2026-04-28 15:05 | 13.82620 | 77.23293 | 13534 ft | 372 kts | 147° |
| 2026-04-28 15:06 | 13.80483 | 77.24679 | 13126 ft | 347 kts | 147° |
| 2026-04-28 15:06 | 13.78531 | 77.25944 | 12752 ft | 323 kts | 147° |
| 2026-04-28 15:06 | 13.76658 | 77.27158 | 12430 ft | 315 kts | 147° |
| 2026-04-28 15:06 | 13.74806 | 77.28359 | 12111 ft | 314 kts | 146° |
| 2026-04-28 15:07 | 13.72957 | 77.29559 | 11820 ft | 314 kts | 146° |
| 2026-04-28 15:07 | 13.71124 | 77.30749 | 11516 ft | 314 kts | 146° |
| 2026-04-28 15:07 | 13.69275 | 77.31948 | 11209 ft | 313 kts | 146° |
| 2026-04-28 15:07 | 13.67432 | 77.33143 | 10892 ft | 312 kts | 146° |
| 2026-04-28 15:08 | 13.65595 | 77.34334 | 10604 ft | 310 kts | 146° |
| 2026-04-28 15:08 | 13.63777 | 77.35512 | 10306 ft | 308 kts | 146° |
| 2026-04-28 15:08 | 13.61986 | 77.36673 | 10016 ft | 306 kts | 146° |
| 2026-04-28 15:08 | 13.60182 | 77.37841 | 9728 ft | 304 kts | 146° |
| 2026-04-28 15:09 | 13.58388 | 77.38987 | 9389 ft | 303 kts | 149° |
| 2026-04-28 15:09 | 13.56470 | 77.39895 | 9060 ft | 303 kts | 157° |
| 2026-04-28 15:09 | 13.54508 | 77.40635 | 8741 ft | 303 kts | 159° |
| 2026-04-28 15:09 | 13.53169 | 77.41125 | 8539 ft | 303 kts | 158° |
| 2026-04-28 15:10 | 13.50533 | 77.42108 | 8186 ft | 302 kts | 158° |
| 2026-04-28 15:10 | 13.48590 | 77.42855 | 7991 ft | 299 kts | 157° |
| 2026-04-28 15:10 | 13.46648 | 77.43613 | 7795 ft | 297 kts | 157° |
| 2026-04-28 15:10 | 13.44717 | 77.44373 | 7616 ft | 296 kts | 157° |
| 2026-04-28 15:11 | 13.42740 | 77.45153 | 7467 ft | 308 kts | 157° |
| 2026-04-28 15:11 | 13.40699 | 77.45687 | 7255 ft | 306 kts | 173° |
| 2026-04-28 15:11 | 13.38603 | 77.45764 | 7117 ft | 302 kts | 179° |
| 2026-04-28 15:11 | 13.37269 | 77.45759 | 7075 ft | 295 kts | 180° |
| 2026-04-28 15:12 | 13.34607 | 77.45789 | 6996 ft | 280 kts | 178° |
| 2026-04-28 15:12 | 13.33322 | 77.45820 | 6986 ft | 276 kts | 178° |
| 2026-04-28 15:12 | 13.31414 | 77.45868 | 6977 ft | 269 kts | 180° |
| 2026-04-28 15:12 | 13.29577 | 77.45649 | 6997 ft | 261 kts | 190° |
| 2026-04-28 15:13 | 13.27840 | 77.45274 | 6978 ft | 254 kts | 191° |
| 2026-04-28 15:13 | 13.26110 | 77.44900 | 6995 ft | 254 kts | 190° |
| 2026-04-28 15:13 | 13.24369 | 77.44539 | 6996 ft | 254 kts | 190° |
| 2026-04-28 15:13 | 13.22657 | 77.44324 | 6963 ft | 239 kts | 171° |
| 2026-04-28 15:14 | 13.21230 | 77.44982 | 6994 ft | 224 kts | 136° |
| 2026-04-28 15:14 | 13.20458 | 77.46330 | 7002 ft | 223 kts | 103° |
| 2026-04-28 15:14 | 13.20468 | 77.47950 | 6747 ft | 230 kts | 84° |
| 2026-04-28 15:14 | 13.20669 | 77.49568 | 6487 ft | 228 kts | 86° |
| 2026-04-28 15:15 | 13.20814 | 77.51176 | 6249 ft | 224 kts | 90° |
| 2026-04-28 15:15 | 13.20850 | 77.52761 | 5938 ft | 224 kts | 93° |
| 2026-04-28 15:15 | 13.20840 | 77.54332 | 5650 ft | 213 kts | 93° |
| 2026-04-28 15:15 | 13.20826 | 77.55787 | 5379 ft | 199 kts | 93° |
| 2026-04-28 15:16 | 13.20815 | 77.57164 | 5146 ft | 183 kts | 93° |
| 2026-04-28 15:16 | 13.20804 | 77.58421 | 4917 ft | 169 kts | 93° |
| 2026-04-28 15:16 | 13.20795 | 77.59571 | 4715 ft | 154 kts | 95° |
| 2026-04-28 15:16 | 13.20784 | 77.60650 | 4564 ft | 150 kts | 95° |
| 2026-04-28 15:17 | 13.20774 | 77.61723 | 4347 ft | 151 kts | 95° |
| 2026-04-28 15:17 | 13.20766 | 77.62798 | 4162 ft | 151 kts | 94° |
| 2026-04-28 15:17 | 13.20756 | 77.63863 | 3975 ft | 151 kts | 94° |
| 2026-04-28 15:17 | 13.20746 | 77.64946 | 3795 ft | 152 kts | 93° |
| 2026-04-28 15:18 | 13.20727 | 77.66056 | 3571 ft | 155 kts | 92° |
| 2026-04-28 15:18 | 13.20727 | 77.67164 | 3396 ft | 157 kts | 89° |
| 2026-04-28 15:18 | 13.20725 | 77.68276 | 3145 ft | 153 kts | 89° |
| 2026-04-28 15:18 | 13.20701 | 77.69319 | 3025 ft | 134 kts | 84° |
| 2026-04-28 15:19 | 13.20709 | 77.70167 | 3016 ft | 102 kts | 90° |
| 2026-04-28 15:19 | 13.20704 | 77.70711 | 3016 ft | 66 kts | 91° |
| 2026-04-28 15:19 | 13.20626 | 77.71021 | 3015 ft | 16 kts | 120° |
| 2026-04-28 15:19 | 13.20621 | 77.71030 | 3015 ft | 0 kts | 121° |
| 2026-04-28 15:20 | 13.20618 | 77.71036 | 3015 ft | 4 kts | 121° |
| 2026-04-28 15:20 | 13.20585 | 77.71091 | 3016 ft | 14 kts | 121° |
| 2026-04-28 15:20 | 13.20529 | 77.71208 | 3016 ft | 20 kts | 101° |
| 2026-04-28 15:21 | 13.20524 | 77.71353 | 3016 ft | 20 kts | 90° |
| 2026-04-28 15:21 | 13.20523 | 77.71498 | 3016 ft | 20 kts | 90° |
| 2026-04-28 15:21 | 13.20522 | 77.71643 | 3017 ft | 20 kts | 90° |
| 2026-04-28 15:21 | 13.20520 | 77.71788 | 3017 ft | 20 kts | 90° |
| 2026-04-28 15:22 | 13.20519 | 77.71933 | 3016 ft | 20 kts | 90° |
| 2026-04-28 15:22 | 13.20518 | 77.72026 | 3016 ft | 7 kts | 91° |
| 2026-04-28 15:22 | 13.20518 | 77.72075 | 3017 ft | 7 kts | 91° |
| 2026-04-28 15:22 | 13.20490 | 77.72115 | 3019 ft | 7 kts | 154° |
| 2026-04-28 15:23 | 13.20438 | 77.72115 | 3016 ft | 8 kts | 182° |
| 2026-04-28 15:23 | 13.20382 | 77.72113 | 3016 ft | 8 kts | 181° |
| 2026-04-28 15:23 | 13.20320 | 77.72112 | 3016 ft | 9 kts | 181° |
| 2026-04-28 15:23 | 13.20252 | 77.72112 | 3016 ft | 10 kts | 180° |
| 2026-04-28 15:24 | 13.20188 | 77.72097 | 3016 ft | 10 kts | 223° |
| 2026-04-28 15:24 | 13.20180 | 77.72027 | 3016 ft | 10 kts | 270° |
| 2026-04-28 15:24 | 13.20181 | 77.71953 | 3016 ft | 11 kts | 271° |
| 2026-04-28 15:24 | 13.20182 | 77.71874 | 3016 ft | 11 kts | 270° |
| 2026-04-28 15:25 | 13.20182 | 77.71794 | 3016 ft | 11 kts | 270° |
| 2026-04-28 15:25 | 13.20182 | 77.71744 | 3016 ft | 0 kts | 270° |
| 2026-04-28 15:25 | 13.20182 | 77.71727 | 3016 ft | 10 kts | 270° |
| 2026-04-28 15:25 | 13.20167 | 77.71659 | 3016 ft | 6 kts | 210° |
| 2026-04-28 15:26 | 13.20124 | 77.71660 | 3016 ft | 7 kts | 178° |
| 2026-04-28 15:26 | 13.20092 | 77.71660 | 3016 ft | 2 kts | 180° |
| 2026-04-28 15:26 | 13.20084 | 77.71660 | 3016 ft | 0 kts | 180° |